Taylor Fork

This weather station provides wind speed, gust or max wind speed, and wind direction at 9460 ft. near Pika Point above Sunlight Basin.  

This data can be used with temperature and precipitation data from the Carrot Basin SNOTEL site. If the data below is not displayed or up to date, view data here.

Elevation
9460ft
Jump to table bottom
Date Time Temperature
deg F
RH, % Wind Speed Wind Gust Wind Direction
01/24/22 06:00 19.2 41 7 14 NW - 326
01/24/22 05:00 19.4 45 9 19 N - 344
01/24/22 04:00 19.9 45 14 23 N - 344
01/24/22 03:00 20.1 48 11 20 NW - 336
01/24/22 02:00 21.0 45 8 14 NW - 337
01/24/22 01:00 21.1 40 12 25 NW - 337
01/24/22 00:00 22.1 37 11 20 NW - 306
01/23/22 23:00 23.0 37 20 36 NW - 310
01/23/22 22:00 24.8 32 20 35 NW - 331
01/23/22 21:00 26.0 31 14 39 NW - 329
01/23/22 20:00 27.0 30 14 32 NW - 314
01/23/22 19:00 26.5 33 28 54 NW - 329
01/23/22 18:00 28.9 27 20 44 NW - 327
01/23/22 17:00 28.8 28 20 41 NW - 337
01/23/22 16:00 29.4 28 24 54 NW - 323
01/23/22 15:00 29.2 35 18 36 NW - 306
01/23/22 14:00 30.3 35 18 31 NW - 321
01/23/22 13:00 30.8 31 11 25 NW - 320
01/23/22 12:00 28.8 41 11 27 NW - 295
01/23/22 11:00 27.9 39 14 32 N - 341
01/23/22 10:00 28.0 37 20 31 N - 343
01/23/22 09:00 26.0 49 12 25 N - 341
01/23/22 08:00 23.6 62 6 13 N - 345
01/23/22 07:00 25.7 62 11 20 N - 358
01/23/22 06:00 23.0 70 11 20 N - 358
01/23/22 05:00 22.9 70 7 14 N - 347
01/23/22 04:00 21.9 74 4 11 NW - 327
01/23/22 03:00 24.1 68 5 10 W - 278
01/23/22 02:00 25.0 67 6 12 NW - 303
01/23/22 01:00 25.7 68 5 10 W - 288
01/23/22 00:00 25.9 72 7 12 NW - 306
01/22/22 23:00 25.8 73 10 16 N - 347
01/22/22 22:00 25.0 76 10 15 N - 348
01/22/22 21:00 24.2 78 8 12 N - 345
01/22/22 20:00 22.7 84 10 14 N - 347
01/22/22 19:00 24.9 80 6 12 NW - 336
01/22/22 18:00 21.5 86 3 7 E - 77
01/22/22 17:00 23.2 82 4 12 NE - 27
01/22/22 16:00 24.2 80 8 12 N - 351
01/22/22 15:00 24.2 81 8 15 N - 355
01/22/22 14:00 23.8 82 8 14 N - 350
01/22/22 13:00 22.4 85 8 15 N - 357
01/22/22 12:00 20.2 94 6 10 N - 1
01/22/22 11:00 17.0 93 7 11 N - 348
01/22/22 10:00 14.6 93 6 14 N - 1
01/22/22 09:00 13.9 93 7 13 N - 4
01/22/22 08:00 13.4 93 9 16 N - 3
01/22/22 07:00 13.6 93 8 15 N - 1
01/22/22 06:00 13.0 93 11 19 N - 354
01/22/22 05:00 12.3 93 11 20 N - 358